Naos — ZJL4852 — position and weather

sailwx.info

Track history (hours):
 
Tides and Currents Weather Stations Pressure Air Temp Water Temp Dewpoint Dewpoint Depression Visibility Wind Speed Wind Dir Waves Ship Positions

Naos

Last reported at 2017-Oct-15 15:00 UTC. Time now 2017-Nov-19 19:50 UTC.
Position N 39°29' E 002°29'.
Warning: this ship's position is 35 days out of date.

Length 32 m; draft 3.8 m.

Type: Other ship. MMSI: 233533000.

Date/timePositionNaut miles runAvg speedWind from/ knotsBaromVisibWave heightAir tempDewpointWater temp
2017-Oct-15 15:00N 39°29' E 002°29'5 5.5
2017-Oct-15 14:00N 39°26' E 002°34'5 9.9
2017-Oct-15 13:30N 39°24' E 002°40'510.2
2017-Oct-15 13:00N 39°22' E 002°46'510.2
2017-Oct-15 12:30N 39°19' E 002°51'510.1
2017-Oct-15 12:00N 39°17' E 002°57'510.2
2017-Oct-15 11:30N 39°15' E 003°03'26610.2
2017-Oct-14 09:30N 38°48' E 008°44'610.3
2017-Oct-14 08:56N 38°48' E 008°51'18110.8
2017-Oct-13 16:06N 38°30' E 012°43'210.0
2017-Oct-13 15:54N 38°30' E 012°45'410.0
2017-Oct-13 15:30N 38°30' E 012°50'510.1
2017-Oct-13 15:00N 38°29' E 012°56'510.0
2017-Oct-13 14:31N 38°28' E 013°03'510.0
2017-Oct-13 14:00N 38°28' E 013°09'5 9.9
2017-Oct-13 13:30N 38°28' E 013°15'5 9.7
2017-Oct-13 13:00N 38°28' E 013°21'5 9.7
2017-Oct-13 12:30N 38°27' E 013°28'5 9.8
2017-Oct-13 12:00N 38°26' E 013°34'510.0
2017-Oct-13 11:30N 38°26' E 013°40'5 9.9
2017-Oct-13 10:58N 38°25' E 013°47'510.0
2017-Oct-13 10:30N 38°25' E 013°53'710.1
2017-Oct-13 09:49N 38°24' E 014°02'3510.2
2017-Oct-13 06:25N 38°21' E 014°46'410.1
2017-Oct-13 06:00N 38°21' E 014°51'510.0
2017-Oct-13 05:30N 38°20' E 014°57'510.3
2017-Oct-13 05:00N 38°20' E 015°04'510.4
2017-Oct-13 04:30N 38°20' E 015°11'510.3
2017-Oct-13 04:00N 38°20' E 015°17'5 9.9
2017-Oct-13 03:30N 38°20' E 015°24'5 9.9
2017-Oct-13 03:00N 38°19' E 015°30'5 9.7
2017-Oct-13 02:30N 38°19' E 015°36'5 9.5
2017-Oct-13 02:01N 38°17' E 015°42'4 8.0
2017-Oct-13 01:31N 38°14' E 015°38'4 8.6
2017-Oct-13 01:00N 38°10' E 015°37'5 9.5
2017-Oct-13 00:30N 38°05' E 015°37'5 9.5
2017-Oct-13 00:00N 38°01' E 015°37'4 8.7
2017-Oct-12 23:31N 37°57' E 015°39'5 9.3
2017-Oct-12 23:00N 37°54' E 015°44'6 9.6
2017-Oct-12 22:25N 37°54' E 015°51'5 9.4
2017-Oct-12 21:56N 37°54' E 015°57'  
Track history (hours):
 
Tides and Currents Weather Stations Pressure Air Temp Water Temp Dewpoint Dewpoint Depression Visibility Wind Speed Wind Dir Waves Ship Positions

Naos

Last reported at 2017-Oct-15 15:00 UTC. Time now 2017-Nov-19 19:50 UTC.
Position N 39°29' E 002°29'.
Warning: this ship's position is 35 days out of date.

Length 32 m; draft 3.8 m.

Type: Other ship. MMSI: 233533000.

Date/timePositionNaut miles runAvg speedWind from/ knotsBaromVisibWave heightAir tempDewpointWater temp
2017-Oct-15 15:00N 39°29' E 002°29'5 5.5
2017-Oct-15 14:00N 39°26' E 002°34'5 9.9
2017-Oct-15 13:30N 39°24' E 002°40'510.2
2017-Oct-15 13:00N 39°22' E 002°46'510.2
2017-Oct-15 12:30N 39°19' E 002°51'510.1
2017-Oct-15 12:00N 39°17' E 002°57'510.2
2017-Oct-15 11:30N 39°15' E 003°03'26610.2
2017-Oct-14 09:30N 38°48' E 008°44'610.3
2017-Oct-14 08:56N 38°48' E 008°51'18110.8
2017-Oct-13 16:06N 38°30' E 012°43'210.0
2017-Oct-13 15:54N 38°30' E 012°45'410.0
2017-Oct-13 15:30N 38°30' E 012°50'510.1
2017-Oct-13 15:00N 38°29' E 012°56'510.0
2017-Oct-13 14:31N 38°28' E 013°03'510.0
2017-Oct-13 14:00N 38°28' E 013°09'5 9.9
2017-Oct-13 13:30N 38°28' E 013°15'5 9.7
2017-Oct-13 13:00N 38°28' E 013°21'5 9.7
2017-Oct-13 12:30N 38°27' E 013°28'5 9.8
2017-Oct-13 12:00N 38°26' E 013°34'510.0
2017-Oct-13 11:30N 38°26' E 013°40'5 9.9
2017-Oct-13 10:58N 38°25' E 013°47'510.0
2017-Oct-13 10:30N 38°25' E 013°53'710.1
2017-Oct-13 09:49N 38°24' E 014°02'3510.2
2017-Oct-13 06:25N 38°21' E 014°46'410.1
2017-Oct-13 06:00N 38°21' E 014°51'510.0
2017-Oct-13 05:30N 38°20' E 014°57'510.3
2017-Oct-13 05:00N 38°20' E 015°04'510.4
2017-Oct-13 04:30N 38°20' E 015°11'510.3
2017-Oct-13 04:00N 38°20' E 015°17'5 9.9
2017-Oct-13 03:30N 38°20' E 015°24'5 9.9
2017-Oct-13 03:00N 38°19' E 015°30'5 9.7
2017-Oct-13 02:30N 38°19' E 015°36'5 9.5
2017-Oct-13 02:01N 38°17' E 015°42'4 8.0
2017-Oct-13 01:31N 38°14' E 015°38'4 8.6
2017-Oct-13 01:00N 38°10' E 015°37'5 9.5
2017-Oct-13 00:30N 38°05' E 015°37'5 9.5
2017-Oct-13 00:00N 38°01' E 015°37'4 8.7
2017-Oct-12 23:31N 37°57' E 015°39'5 9.3
2017-Oct-12 23:00N 37°54' E 015°44'6 9.6
2017-Oct-12 22:25N 37°54' E 015°51'5 9.4
2017-Oct-12 21:56N 37°54' E 015°57'  

Dump ship's entire track history